sensor_id;sensor_type;location;lat;lon;timestamp;P1;durP1;ratioP1;P2;durP2;ratioP2
19863;SDS011;10094;48.820;9.226;2022-07-23T00:06:16;5.63;;;4.47;;
19863;SDS011;10094;48.820;9.226;2022-07-23T00:12:59;5.93;;;4.75;;
19863;SDS011;10094;48.820;9.226;2022-07-23T00:19:42;5.60;;;5.03;;
19863;SDS011;10094;48.820;9.226;2022-07-23T00:26:43;5.13;;;4.63;;
19863;SDS011;10094;48.820;9.226;2022-07-23T00:33:25;4.93;;;4.53;;
19863;SDS011;10094;48.820;9.226;2022-07-23T00:40:08;6.07;;;4.57;;
19863;SDS011;10094;48.820;9.226;2022-07-23T00:46:53;4.53;;;4.13;;
19863;SDS011;10094;48.820;9.226;2022-07-23T00:53:39;4.45;;;3.80;;
19863;SDS011;10094;48.820;9.226;2022-07-23T01:00:23;4.57;;;3.97;;
19863;SDS011;10094;48.820;9.226;2022-07-23T01:07:41;4.70;;;4.30;;
19863;SDS011;10094;48.820;9.226;2022-07-23T01:14:25;4.50;;;4.10;;
19863;SDS011;10094;48.820;9.226;2022-07-23T01:21:09;4.45;;;4.05;;
19863;SDS011;10094;48.820;9.226;2022-07-23T01:27:57;5.65;;;4.22;;
19863;SDS011;10094;48.820;9.226;2022-07-23T01:34:40;4.38;;;3.97;;
19863;SDS011;10094;48.820;9.226;2022-07-23T01:41:23;4.95;;;4.45;;
19863;SDS011;10094;48.820;9.226;2022-07-23T01:48:07;4.38;;;3.78;;
19863;SDS011;10094;48.820;9.226;2022-07-23T01:54:56;4.88;;;4.03;;
19863;SDS011;10094;48.820;9.226;2022-07-23T02:01:39;4.57;;;4.18;;
19863;SDS011;10094;48.820;9.226;2022-07-23T02:08:21;5.18;;;4.68;;
19863;SDS011;10094;48.820;9.226;2022-07-23T02:15:04;4.80;;;4.40;;
19863;SDS011;10094;48.820;9.226;2022-07-23T02:21:50;5.00;;;4.50;;
19863;SDS011;10094;48.820;9.226;2022-07-23T02:28:34;5.95;;;4.68;;
19863;SDS011;10094;48.820;9.226;2022-07-23T02:35:17;7.00;;;4.50;;
19863;SDS011;10094;48.820;9.226;2022-07-23T02:41:59;5.18;;;4.75;;
19863;SDS011;10094;48.820;9.226;2022-07-23T02:48:44;5.22;;;4.53;;
19863;SDS011;10094;48.820;9.226;2022-07-23T02:55:28;6.50;;;5.80;;
19863;SDS011;10094;48.820;9.226;2022-07-23T03:02:14;5.20;;;4.45;;
19863;SDS011;10094;48.820;9.226;2022-07-23T03:08:56;4.97;;;4.53;;
19863;SDS011;10094;48.820;9.226;2022-07-23T03:15:39;4.93;;;4.30;;
19863;SDS011;10094;48.820;9.226;2022-07-23T03:22:21;8.73;;;7.90;;
19863;SDS011;10094;48.820;9.226;2022-07-23T03:29:04;5.85;;;4.60;;
19863;SDS011;10094;48.820;9.226;2022-07-23T03:35:47;4.95;;;4.45;;
19863;SDS011;10094;48.820;9.226;2022-07-23T03:42:35;5.10;;;4.63;;
19863;SDS011;10094;48.820;9.226;2022-07-23T03:49:19;5.60;;;5.05;;
19863;SDS011;10094;48.820;9.226;2022-07-23T03:56:03;4.72;;;4.30;;
19863;SDS011;10094;48.820;9.226;2022-07-23T04:02:46;5.80;;;5.20;;
19863;SDS011;10094;48.820;9.226;2022-07-23T04:09:28;5.43;;;4.93;;
19863;SDS011;10094;48.820;9.226;2022-07-23T04:16:11;4.57;;;4.15;;
19863;SDS011;10094;48.820;9.226;2022-07-23T04:22:53;6.25;;;5.65;;
19863;SDS011;10094;48.820;9.226;2022-07-23T04:29:36;6.68;;;4.90;;
19863;SDS011;10094;48.820;9.226;2022-07-23T04:36:19;5.60;;;5.07;;
19863;SDS011;10094;48.820;9.226;2022-07-23T04:43:01;5.05;;;4.55;;
19863;SDS011;10094;48.820;9.226;2022-07-23T04:49:46;6.13;;;4.97;;
19863;SDS011;10094;48.820;9.226;2022-07-23T04:56:30;5.30;;;4.80;;
19863;SDS011;10094;48.820;9.226;2022-07-23T05:03:12;6.07;;;5.32;;
19863;SDS011;10094;48.820;9.226;2022-07-23T05:09:55;10.40;;;5.93;;
19863;SDS011;10094;48.820;9.226;2022-07-23T05:16:38;5.03;;;4.53;;
19863;SDS011;10094;48.820;9.226;2022-07-23T05:23:26;5.07;;;4.60;;
19863;SDS011;10094;48.820;9.226;2022-07-23T05:30:09;5.20;;;4.75;;
19863;SDS011;10094;48.820;9.226;2022-07-23T05:36:53;5.45;;;4.80;;
19863;SDS011;10094;48.820;9.226;2022-07-23T05:43:36;5.72;;;4.95;;
19863;SDS011;10094;48.820;9.226;2022-07-23T05:50:24;5.70;;;5.18;;
19863;SDS011;10094;48.820;9.226;2022-07-23T05:58:01;5.00;;;4.60;;
19863;SDS011;10094;48.820;9.226;2022-07-23T06:04:45;6.00;;;5.50;;
19863;SDS011;10094;48.820;9.226;2022-07-23T06:11:37;5.60;;;5.10;;
19863;SDS011;10094;48.820;9.226;2022-07-23T06:18:20;7.07;;;5.32;;
19863;SDS011;10094;48.820;9.226;2022-07-23T06:25:02;6.28;;;5.68;;
19863;SDS011;10094;48.820;9.226;2022-07-23T06:31:53;5.40;;;4.90;;
19863;SDS011;10094;48.820;9.226;2022-07-23T06:38:35;6.53;;;5.18;;
19863;SDS011;10094;48.820;9.226;2022-07-23T06:45:18;7.45;;;6.00;;
19863;SDS011;10094;48.820;9.226;2022-07-23T06:52:01;7.28;;;5.38;;
19863;SDS011;10094;48.820;9.226;2022-07-23T06:58:44;6.63;;;6.03;;
19863;SDS011;10094;48.820;9.226;2022-07-23T07:05:26;5.80;;;5.30;;
19863;SDS011;10094;48.820;9.226;2022-07-23T07:12:09;7.22;;;5.93;;
19863;SDS011;10094;48.820;9.226;2022-07-23T07:18:51;7.00;;;6.03;;
19863;SDS011;10094;48.820;9.226;2022-07-23T07:25:34;6.40;;;5.40;;
19863;SDS011;10094;48.820;9.226;2022-07-23T07:32:16;6.45;;;5.78;;
19863;SDS011;10094;48.820;9.226;2022-07-23T07:39:19;7.05;;;5.80;;
19863;SDS011;10094;48.820;9.226;2022-07-23T07:46:02;6.85;;;6.20;;
19863;SDS011;10094;48.820;9.226;2022-07-23T07:52:46;7.65;;;6.30;;
19863;SDS011;10094;48.820;9.226;2022-07-23T07:59:28;7.57;;;6.28;;
19863;SDS011;10094;48.820;9.226;2022-07-23T08:06:14;6.88;;;6.22;;
19863;SDS011;10094;48.820;9.226;2022-07-23T08:12:57;6.38;;;5.78;;
19863;SDS011;10094;48.820;9.226;2022-07-23T08:19:42;6.85;;;6.18;;
19863;SDS011;10094;48.820;9.226;2022-07-23T08:26:24;6.15;;;5.65;;
19863;SDS011;10094;48.820;9.226;2022-07-23T08:33:08;5.82;;;5.15;;
19863;SDS011;10094;48.820;9.226;2022-07-23T08:40:14;6.82;;;6.05;;
19863;SDS011;10094;48.820;9.226;2022-07-23T08:46:57;6.60;;;6.00;;
19863;SDS011;10094;48.820;9.226;2022-07-23T08:53:39;6.03;;;5.43;;
19863;SDS011;10094;48.820;9.226;2022-07-23T09:00:23;6.63;;;5.05;;
19863;SDS011;10094;48.820;9.226;2022-07-23T09:14:53;5.20;;;4.80;;
19863;SDS011;10094;48.820;9.226;2022-07-23T09:21:37;5.47;;;4.97;;
19863;SDS011;10094;48.820;9.226;2022-07-23T09:28:20;4.85;;;4.45;;
19863;SDS011;10094;48.820;9.226;2022-07-23T09:35:03;6.32;;;5.82;;
19863;SDS011;10094;48.820;9.226;2022-07-23T09:41:46;5.50;;;5.10;;
19863;SDS011;10094;48.820;9.226;2022-07-23T09:48:29;5.43;;;4.88;;
19863;SDS011;10094;48.820;9.226;2022-07-23T09:55:12;4.63;;;4.25;;
19863;SDS011;10094;48.820;9.226;2022-07-23T10:01:55;8.98;;;5.47;;
19863;SDS011;10094;48.820;9.226;2022-07-23T10:08:40;5.00;;;4.60;;
19863;SDS011;10094;48.820;9.226;2022-07-23T10:15:47;4.70;;;4.30;;
19863;SDS011;10094;48.820;9.226;2022-07-23T10:22:37;4.88;;;4.47;;
19863;SDS011;10094;48.820;9.226;2022-07-23T10:36:44;5.63;;;5.15;;
19863;SDS011;10094;48.820;9.226;2022-07-23T10:44:04;5.50;;;5.00;;
19863;SDS011;10094;48.820;9.226;2022-07-23T10:51:37;5.80;;;5.00;;
19863;SDS011;10094;48.820;9.226;2022-07-23T10:58:45;5.63;;;5.18;;
19863;SDS011;10094;48.820;9.226;2022-07-23T11:05:43;6.03;;;5.32;;
19863;SDS011;10094;48.820;9.226;2022-07-23T11:19:12;5.75;;;5.28;;
19863;SDS011;10094;48.820;9.226;2022-07-23T11:25:55;6.00;;;5.38;;
19863;SDS011;10094;48.820;9.226;2022-07-23T11:32:38;4.88;;;4.50;;
19863;SDS011;10094;48.820;9.226;2022-07-23T11:39:22;5.60;;;5.10;;
19863;SDS011;10094;48.820;9.226;2022-07-23T11:46:09;5.65;;;4.85;;
19863;SDS011;10094;48.820;9.226;2022-07-23T11:52:52;5.75;;;5.25;;
19863;SDS011;10094;48.820;9.226;2022-07-23T11:59:36;5.65;;;5.15;;
19863;SDS011;10094;48.820;9.226;2022-07-23T12:06:20;6.47;;;5.55;;
19863;SDS011;10094;48.820;9.226;2022-07-23T12:13:07;7.78;;;6.15;;
19863;SDS011;10094;48.820;9.226;2022-07-23T12:19:52;6.50;;;5.78;;
19863;SDS011;10094;48.820;9.226;2022-07-23T12:26:35;6.05;;;5.47;;
19863;SDS011;10094;48.820;9.226;2022-07-23T12:33:29;6.20;;;5.70;;
19863;SDS011;10094;48.820;9.226;2022-07-23T12:40:23;6.32;;;5.45;;
19863;SDS011;10094;48.820;9.226;2022-07-23T12:47:10;6.47;;;5.60;;
19863;SDS011;10094;48.820;9.226;2022-07-23T12:53:54;5.95;;;5.45;;
19863;SDS011;10094;48.820;9.226;2022-07-23T13:00:56;5.93;;;5.43;;
19863;SDS011;10094;48.820;9.226;2022-07-23T13:07:57;6.07;;;5.47;;
19863;SDS011;10094;48.820;9.226;2022-07-23T13:14:39;6.30;;;5.80;;
19863;SDS011;10094;48.820;9.226;2022-07-23T13:21:23;6.88;;;6.20;;
19863;SDS011;10094;48.820;9.226;2022-07-23T13:28:07;6.55;;;6.00;;
19863;SDS011;10094;48.820;9.226;2022-07-23T13:34:50;6.32;;;5.63;;
19863;SDS011;10094;48.820;9.226;2022-07-23T13:41:32;8.02;;;6.18;;
19863;SDS011;10094;48.820;9.226;2022-07-23T13:48:17;6.82;;;6.22;;
19863;SDS011;10094;48.820;9.226;2022-07-23T13:55:02;6.65;;;6.15;;
19863;SDS011;10094;48.820;9.226;2022-07-23T14:01:46;6.70;;;6.10;;
19863;SDS011;10094;48.820;9.226;2022-07-23T14:08:48;7.72;;;6.80;;
19863;SDS011;10094;48.820;9.226;2022-07-23T14:15:32;7.68;;;6.82;;
19863;SDS011;10094;48.820;9.226;2022-07-23T14:22:16;6.95;;;6.25;;
19863;SDS011;10094;48.820;9.226;2022-07-23T14:29:02;7.07;;;6.47;;
19863;SDS011;10094;48.820;9.226;2022-07-23T14:35:45;7.13;;;6.53;;
19863;SDS011;10094;48.820;9.226;2022-07-23T14:42:28;7.38;;;6.68;;
19863;SDS011;10094;48.820;9.226;2022-07-23T14:49:11;8.00;;;6.35;;
19863;SDS011;10094;48.820;9.226;2022-07-23T14:55:53;7.07;;;6.38;;
19863;SDS011;10094;48.820;9.226;2022-07-23T15:02:36;5.88;;;5.35;;
19863;SDS011;10094;48.820;9.226;2022-07-23T15:09:19;8.35;;;6.00;;
19863;SDS011;10094;48.820;9.226;2022-07-23T15:16:03;7.47;;;6.65;;
19863;SDS011;10094;48.820;9.226;2022-07-23T15:22:47;7.20;;;6.50;;
19863;SDS011;10094;48.820;9.226;2022-07-23T15:29:30;6.55;;;5.95;;
19863;SDS011;10094;48.820;9.226;2022-07-23T15:36:12;7.75;;;5.90;;
19863;SDS011;10094;48.820;9.226;2022-07-23T15:42:57;6.43;;;5.90;;
19863;SDS011;10094;48.820;9.226;2022-07-23T15:49:39;6.50;;;5.82;;
19863;SDS011;10094;48.820;9.226;2022-07-23T15:56:22;6.22;;;5.72;;
19863;SDS011;10094;48.820;9.226;2022-07-23T16:03:04;6.43;;;5.80;;
19863;SDS011;10094;48.820;9.226;2022-07-23T16:09:48;7.10;;;6.50;;
19863;SDS011;10094;48.820;9.226;2022-07-23T16:16:31;6.50;;;6.00;;
19863;SDS011;10094;48.820;9.226;2022-07-23T16:23:13;7.45;;;6.50;;
19863;SDS011;10094;48.820;9.226;2022-07-23T16:29:56;6.68;;;6.07;;
19863;SDS011;10094;48.820;9.226;2022-07-23T16:36:38;7.25;;;6.55;;
19863;SDS011;10094;48.820;9.226;2022-07-23T16:43:21;7.10;;;6.50;;
19863;SDS011;10094;48.820;9.226;2022-07-23T16:50:04;8.50;;;7.80;;
19863;SDS011;10094;48.820;9.226;2022-07-23T16:56:49;7.90;;;7.20;;
19863;SDS011;10094;48.820;9.226;2022-07-23T17:03:31;8.63;;;7.78;;
19863;SDS011;10094;48.820;9.226;2022-07-23T17:10:14;7.93;;;7.20;;
19863;SDS011;10094;48.820;9.226;2022-07-23T17:16:57;8.23;;;7.35;;
19863;SDS011;10094;48.820;9.226;2022-07-23T17:23:40;8.65;;;7.75;;
19863;SDS011;10094;48.820;9.226;2022-07-23T17:30:22;8.48;;;7.68;;
19863;SDS011;10094;48.820;9.226;2022-07-23T17:37:05;9.25;;;8.35;;
19863;SDS011;10094;48.820;9.226;2022-07-23T17:43:50;8.60;;;7.82;;
19863;SDS011;10094;48.820;9.226;2022-07-23T17:50:33;8.85;;;8.05;;
19863;SDS011;10094;48.820;9.226;2022-07-23T17:57:15;9.77;;;8.73;;
19863;SDS011;10094;48.820;9.226;2022-07-23T18:03:58;9.52;;;8.57;;
19863;SDS011;10094;48.820;9.226;2022-07-23T18:10:41;10.20;;;8.68;;
19863;SDS011;10094;48.820;9.226;2022-07-23T18:17:23;9.73;;;8.75;;
19863;SDS011;10094;48.820;9.226;2022-07-23T18:24:06;9.88;;;8.82;;
19863;SDS011;10094;48.820;9.226;2022-07-23T18:30:49;9.55;;;8.07;;
19863;SDS011;10094;48.820;9.226;2022-07-23T18:37:32;9.75;;;8.38;;
19863;SDS011;10094;48.820;9.226;2022-07-23T18:44:18;9.43;;;8.30;;
19863;SDS011;10094;48.820;9.226;2022-07-23T18:51:01;9.88;;;8.88;;
19863;SDS011;10094;48.820;9.226;2022-07-23T18:57:45;10.82;;;8.80;;
19863;SDS011;10094;48.820;9.226;2022-07-23T19:04:27;9.38;;;8.27;;
19863;SDS011;10094;48.820;9.226;2022-07-23T19:11:10;9.60;;;8.50;;
19863;SDS011;10094;48.820;9.226;2022-07-23T19:17:52;10.38;;;8.40;;
19863;SDS011;10094;48.820;9.226;2022-07-23T19:24:34;9.10;;;8.20;;
19863;SDS011;10094;48.820;9.226;2022-07-23T19:31:19;11.07;;;8.88;;
19863;SDS011;10094;48.820;9.226;2022-07-23T19:38:02;9.20;;;8.30;;
19863;SDS011;10094;48.820;9.226;2022-07-23T19:44:45;9.23;;;8.20;;
19863;SDS011;10094;48.820;9.226;2022-07-23T19:51:27;9.80;;;8.80;;
19863;SDS011;10094;48.820;9.226;2022-07-23T19:58:10;9.55;;;8.57;;
19863;SDS011;10094;48.820;9.226;2022-07-23T20:04:53;10.15;;;8.18;;
19863;SDS011;10094;48.820;9.226;2022-07-23T20:11:35;10.10;;;8.95;;
19863;SDS011;10094;48.820;9.226;2022-07-23T20:18:18;9.95;;;9.00;;
19863;SDS011;10094;48.820;9.226;2022-07-23T20:25:01;10.55;;;9.55;;
19863;SDS011;10094;48.820;9.226;2022-07-23T20:31:44;9.43;;;8.38;;
19863;SDS011;10094;48.820;9.226;2022-07-23T20:38:46;9.60;;;8.70;;
19863;SDS011;10094;48.820;9.226;2022-07-23T20:45:28;9.90;;;8.95;;
19863;SDS011;10094;48.820;9.226;2022-07-23T20:52:11;10.98;;;9.52;;
19863;SDS011;10094;48.820;9.226;2022-07-23T20:58:54;11.05;;;9.27;;
19863;SDS011;10094;48.820;9.226;2022-07-23T21:05:37;10.70;;;9.60;;
19863;SDS011;10094;48.820;9.226;2022-07-23T21:12:19;10.70;;;9.60;;
19863;SDS011;10094;48.820;9.226;2022-07-23T21:19:03;10.85;;;9.65;;
19863;SDS011;10094;48.820;9.226;2022-07-23T21:25:46;11.40;;;10.25;;
19863;SDS011;10094;48.820;9.226;2022-07-23T21:32:51;10.38;;;9.43;;
19863;SDS011;10094;48.820;9.226;2022-07-23T21:39:33;10.80;;;9.75;;
19863;SDS011;10094;48.820;9.226;2022-07-23T21:46:16;10.48;;;9.43;;
19863;SDS011;10094;48.820;9.226;2022-07-23T21:52:58;10.70;;;9.57;;
19863;SDS011;10094;48.820;9.226;2022-07-23T21:59:40;12.57;;;11.27;;
19863;SDS011;10094;48.820;9.226;2022-07-23T22:06:26;13.63;;;12.32;;
19863;SDS011;10094;48.820;9.226;2022-07-23T22:13:09;14.00;;;11.95;;
19863;SDS011;10094;48.820;9.226;2022-07-23T22:19:54;12.10;;;11.07;;
19863;SDS011;10094;48.820;9.226;2022-07-23T22:26:36;13.70;;;12.35;;
19863;SDS011;10094;48.820;9.226;2022-07-23T22:33:19;14.02;;;12.65;;
19863;SDS011;10094;48.820;9.226;2022-07-23T22:40:02;15.18;;;13.43;;
19863;SDS011;10094;48.820;9.226;2022-07-23T22:46:46;13.75;;;12.35;;
19863;SDS011;10094;48.820;9.226;2022-07-23T22:53:29;14.95;;;13.43;;
19863;SDS011;10094;48.820;9.226;2022-07-23T23:00:11;13.13;;;11.77;;
19863;SDS011;10094;48.820;9.226;2022-07-23T23:07:49;13.85;;;12.45;;
19863;SDS011;10094;48.820;9.226;2022-07-23T23:14:32;14.00;;;12.57;;
19863;SDS011;10094;48.820;9.226;2022-07-23T23:21:15;14.35;;;11.63;;
19863;SDS011;10094;48.820;9.226;2022-07-23T23:27:58;15.60;;;14.13;;
19863;SDS011;10094;48.820;9.226;2022-07-23T23:34:40;13.75;;;12.45;;
19863;SDS011;10094;48.820;9.226;2022-07-23T23:41:23;15.45;;;13.45;;
19863;SDS011;10094;48.820;9.226;2022-07-23T23:48:08;12.98;;;11.88;;
19863;SDS011;10094;48.820;9.226;2022-07-23T23:54:50;12.68;;;11.45;;
